createdAt,value
2018-05-17T00:00:49.549Z,79.00
2018-05-17T00:03:17.690Z,78.70
2018-05-17T00:05:45.432Z,78.70
2018-05-17T00:08:13.718Z,78.20
2018-05-17T00:10:42.020Z,78.40
2018-05-17T00:13:09.980Z,78.40
2018-05-17T00:15:37.496Z,78.30
2018-05-17T00:18:05.504Z,78.00
2018-05-17T00:20:33.758Z,78.00
2018-05-17T00:23:01.286Z,78.00
2018-05-17T00:25:29.115Z,78.00
2018-05-17T00:27:57.474Z,78.30
2018-05-17T00:30:24.945Z,78.80
2018-05-17T00:32:53.996Z,79.40
2018-05-17T00:35:22.348Z,79.30
2018-05-17T00:37:50.626Z,80.40
2018-05-17T00:40:20.006Z,79.90
2018-05-17T00:42:47.589Z,79.90
2018-05-17T00:45:15.909Z,79.70
2018-05-17T00:47:43.456Z,79.80
2018-05-17T00:50:13.574Z,80.10
2018-05-17T00:52:41.913Z,80.00
2018-05-17T00:55:09.398Z,80.20
2018-05-17T00:57:37.711Z,80.60
2018-05-17T01:00:06.344Z,80.70
2018-05-17T01:02:35.407Z,80.70
2018-05-17T01:05:03.402Z,80.90
2018-05-17T01:07:30.923Z,80.60
2018-05-17T01:09:59.852Z,80.50
2018-05-17T01:12:27.342Z,80.50
2018-05-17T01:14:55.515Z,80.50
2018-05-17T01:17:22.993Z,80.90
2018-05-17T01:19:50.478Z,81.10
2018-05-17T01:22:18.752Z,81.40
2018-05-17T01:24:47.461Z,81.10
2018-05-17T01:27:15.761Z,82.30
2018-05-17T01:29:43.403Z,81.50
2018-05-17T01:32:11.758Z,82.10
2018-05-17T01:34:39.267Z,82.00
2018-05-17T01:37:18.739Z,82.00
2018-05-17T01:39:46.587Z,82.00
2018-05-17T01:42:14.229Z,82.20
2018-05-17T01:44:42.503Z,82.10
2018-05-17T01:47:10.814Z,81.90
2018-05-17T01:49:38.994Z,81.90
2018-05-17T01:52:06.495Z,81.90
2018-05-17T01:54:34.082Z,81.60
2018-05-17T01:57:01.632Z,81.70
2018-05-17T01:59:30.238Z,81.80
2018-05-17T02:01:57.857Z,81.80
2018-05-17T02:04:25.404Z,82.00
2018-05-17T02:06:54.754Z,82.50
2018-05-17T02:09:22.359Z,82.50
2018-05-17T02:11:49.948Z,82.50
2018-05-17T02:14:17.454Z,82.70
2018-05-17T02:16:44.948Z,82.80
2018-05-17T02:19:12.521Z,82.90
2018-05-17T02:21:40.768Z,83.30
2018-05-17T02:24:08.290Z,83.30
2018-05-17T02:26:35.792Z,84.20
2018-05-17T02:29:04.075Z,84.00
2018-05-17T02:31:31.680Z,84.00
2018-05-17T02:33:59.772Z,84.10
2018-05-17T02:36:27.262Z,84.30
2018-05-17T02:38:54.748Z,84.90
2018-05-17T02:41:22.652Z,84.80
2018-05-17T02:43:50.598Z,85.30
2018-05-17T02:46:19.064Z,86.00
2018-05-17T02:48:46.776Z,85.90
2018-05-17T02:51:14.326Z,86.90
2018-05-17T02:53:42.615Z,86.70
2018-05-17T02:56:10.786Z,86.60
2018-05-17T02:58:38.292Z,86.90
2018-05-17T03:01:05.798Z,86.90
2018-05-17T03:03:34.786Z,87.20
2018-05-17T03:06:02.298Z,87.10
2018-05-17T03:08:29.829Z,87.30
2018-05-17T03:10:58.119Z,87.50
2018-05-17T03:13:25.686Z,87.40
2018-05-17T03:15:53.673Z,87.50
2018-05-17T03:18:21.170Z,87.50
2018-05-17T03:20:48.985Z,87.60
2018-05-17T03:23:17.248Z,87.90
2018-05-17T03:25:45.729Z,88.00
2018-05-17T03:28:13.881Z,88.60
2018-05-17T03:30:41.366Z,88.00
2018-05-17T03:33:08.890Z,88.00
2018-05-17T03:35:37.132Z,87.70
2018-05-17T03:38:05.388Z,87.50
2018-05-17T03:40:33.000Z,87.50
2018-05-17T03:43:00.562Z,87.50
2018-05-17T03:45:28.204Z,87.80
2018-05-17T03:47:56.536Z,87.90
2018-05-17T03:50:24.042Z,87.90
2018-05-17T03:52:51.570Z,87.70
2018-05-17T03:55:19.080Z,86.90
2018-05-17T03:57:47.358Z,86.80
2018-05-17T04:00:15.664Z,86.70
2018-05-17T04:02:55.091Z,87.30
2018-05-17T04:05:34.486Z,86.60
2018-05-17T04:08:02.004Z,85.30
2018-05-17T04:10:29.676Z,85.30
2018-05-17T04:12:57.880Z,85.10
2018-05-17T04:15:25.416Z,84.80
2018-05-17T04:17:52.898Z,85.20
2018-05-17T04:20:20.544Z,84.20
2018-05-17T04:22:48.078Z,83.60
2018-05-17T04:25:16.804Z,83.90
2018-05-17T04:27:44.302Z,83.80
2018-05-17T04:30:11.940Z,83.80
2018-05-17T04:32:39.462Z,83.30
2018-05-17T04:35:06.991Z,82.80
2018-05-17T04:37:34.592Z,82.60
2018-05-17T04:40:02.900Z,81.90
2018-05-17T04:42:30.460Z,81.80
2018-05-17T04:44:57.950Z,81.40
2018-05-17T04:47:25.586Z,81.00
2018-05-17T04:49:53.114Z,80.70
2018-05-17T04:52:20.655Z,79.20
2018-05-17T04:54:48.270Z,76.30
2018-05-17T04:57:16.531Z,71.80
2018-05-17T04:59:46.564Z,71.40
2018-05-17T05:02:14.016Z,70.70
2018-05-17T05:04:42.328Z,67.20
2018-05-17T05:07:10.508Z,67.20
2018-05-17T05:09:38.218Z,65.30
2018-05-17T05:12:05.738Z,64.80
2018-05-17T05:14:33.300Z,64.40
2018-05-17T05:17:01.027Z,63.30
2018-05-17T05:19:28.528Z,63.20
2018-05-17T05:21:56.104Z,62.90
2018-05-17T05:24:23.706Z,62.70
2018-05-17T05:26:51.226Z,62.50
2018-05-17T05:29:18.738Z,62.70
2018-05-17T05:31:46.262Z,63.10
2018-05-17T05:34:13.784Z,63.20
2018-05-17T05:36:42.182Z,64.40
2018-05-17T05:39:11.274Z,64.60
2018-05-17T05:41:39.606Z,64.50
2018-05-17T05:44:07.136Z,64.40
2018-05-17T05:46:34.670Z,63.70
2018-05-17T05:49:02.312Z,62.60
2018-05-17T05:51:29.854Z,62.70
2018-05-17T05:53:57.420Z,61.90
2018-05-17T05:56:24.939Z,61.30
2018-05-17T05:58:53.514Z,60.00
2018-05-17T06:01:21.018Z,60.00
2018-05-17T06:03:48.744Z,59.80
2018-05-17T06:06:16.278Z,59.60
2018-05-17T06:08:44.018Z,59.80
2018-05-17T06:11:11.623Z,59.40
2018-05-17T06:13:39.129Z,59.70
2018-05-17T06:16:07.530Z,59.60
2018-05-17T06:18:35.085Z,59.60
2018-05-17T06:21:03.373Z,58.50
2018-05-17T06:23:31.020Z,58.50
2018-05-17T06:25:59.312Z,58.00
2018-05-17T06:28:26.848Z,58.00
2018-05-17T06:30:54.438Z,57.70
2018-05-17T06:33:22.078Z,57.10
2018-05-17T06:35:50.364Z,57.50
2018-05-17T06:38:19.151Z,57.60
2018-05-17T06:40:46.736Z,57.50
2018-05-17T06:43:15.186Z,58.40
2018-05-17T06:45:42.790Z,58.30
2018-05-17T06:48:11.059Z,57.90
2018-05-17T06:50:39.340Z,58.00
2018-05-17T06:53:07.618Z,58.20
2018-05-17T06:55:35.901Z,58.50
2018-05-17T06:58:04.161Z,58.70
2018-05-17T07:00:31.695Z,58.70
2018-05-17T07:02:59.936Z,58.90
2018-05-17T07:05:28.934Z,58.90
2018-05-17T07:07:57.213Z,57.90
2018-05-17T07:10:25.535Z,57.90
2018-05-17T07:12:53.042Z,58.40
2018-05-17T07:15:20.640Z,57.70
2018-05-17T07:17:48.230Z,57.80
2018-05-17T07:20:15.722Z,56.20
2018-05-17T07:22:44.734Z,56.50
2018-05-17T07:25:12.220Z,56.40
2018-05-17T07:27:40.558Z,56.40
2018-05-17T07:30:08.870Z,57.00
2018-05-17T07:32:37.153Z,57.70
2018-05-17T07:35:05.432Z,58.50
2018-05-17T07:37:32.951Z,58.50
2018-05-17T07:40:00.554Z,59.10
2018-05-17T07:42:28.849Z,58.80
2018-05-17T07:44:57.408Z,59.30
2018-05-17T07:47:25.136Z,59.30
2018-05-17T07:49:52.631Z,60.50
2018-05-17T07:52:20.254Z,61.60
2018-05-17T07:54:47.749Z,60.40
2018-05-17T07:57:15.672Z,61.00
2018-05-17T07:59:43.174Z,61.60
2018-05-17T08:02:10.784Z,61.90
2018-05-17T08:04:39.071Z,61.90
2018-05-17T08:07:07.336Z,62.40
2018-05-17T08:09:34.944Z,62.40
2018-05-17T08:12:02.482Z,62.00
2018-05-17T08:14:30.518Z,62.40
2018-05-17T08:16:58.164Z,62.60
2018-05-17T08:19:25.930Z,62.10
2018-05-17T08:21:54.207Z,61.80
2018-05-17T08:24:21.825Z,60.80
2018-05-17T08:26:50.207Z,61.50
2018-05-17T08:29:17.819Z,61.30
2018-05-17T08:31:45.407Z,61.60
2018-05-17T08:34:12.944Z,61.30
2018-05-17T08:36:41.133Z,61.70
2018-05-17T08:39:08.577Z,61.10
2018-05-17T08:41:36.550Z,60.10
2018-05-17T08:44:04.052Z,60.00
2018-05-17T08:46:31.552Z,60.00
2018-05-17T08:48:59.962Z,59.00
2018-05-17T08:51:27.450Z,59.00
2018-05-17T08:53:54.976Z,59.30
2018-05-17T08:56:23.358Z,62.30
2018-05-17T08:58:51.646Z,62.50
2018-05-17T09:01:19.843Z,62.50
2018-05-17T09:03:47.779Z,62.10
2018-05-17T09:06:16.100Z,61.50
2018-05-17T09:08:45.025Z,61.80
2018-05-17T09:11:12.517Z,61.80
2018-05-17T09:13:40.921Z,62.40
2018-05-17T09:16:08.400Z,62.40
2018-05-17T09:18:36.041Z,62.60
2018-05-17T09:21:04.303Z,64.00
2018-05-17T09:23:32.590Z,63.60
2018-05-17T09:26:00.916Z,63.70
2018-05-17T09:28:28.438Z,63.70
2018-05-17T09:30:56.703Z,63.70
2018-05-17T09:33:24.256Z,63.70
2018-05-17T09:35:53.106Z,63.20
2018-05-17T09:38:21.420Z,63.20
2018-05-17T09:40:48.952Z,62.50
2018-05-17T09:43:17.448Z,62.00
2018-05-17T09:45:45.704Z,62.40
2018-05-17T09:48:13.574Z,62.50
2018-05-17T09:50:41.458Z,63.00
2018-05-17T09:53:08.974Z,63.50
2018-05-17T09:55:37.042Z,63.80
2018-05-17T09:58:04.674Z,64.50
2018-05-17T10:00:32.266Z,63.60
2018-05-17T10:02:59.780Z,64.60
2018-05-17T10:05:27.312Z,64.80
2018-05-17T10:07:54.867Z,65.00
2018-05-17T10:10:23.224Z,65.30
2018-05-17T10:12:50.751Z,65.10
2018-05-17T10:15:19.054Z,65.90
2018-05-17T10:17:46.614Z,65.90
2018-05-17T10:20:14.128Z,65.80
2018-05-17T10:22:41.714Z,65.80
2018-05-17T10:25:10.008Z,65.20
2018-05-17T10:27:38.804Z,65.00
2018-05-17T10:30:06.406Z,64.80
2018-05-17T10:32:33.918Z,64.60
2018-05-17T10:35:02.199Z,63.70
2018-05-17T10:37:30.444Z,62.90
2018-05-17T10:39:57.959Z,62.90
2018-05-17T10:42:27.038Z,62.50
2018-05-17T10:44:55.310Z,62.10
2018-05-17T10:47:22.817Z,62.10
2018-05-17T10:49:50.378Z,62.10
2018-05-17T10:52:17.892Z,63.20
2018-05-17T10:54:45.500Z,63.00
2018-05-17T10:57:12.989Z,62.20
2018-05-17T10:59:42.021Z,61.00
2018-05-17T11:02:09.600Z,61.50
2018-05-17T11:04:37.902Z,61.90
2018-05-17T11:07:05.441Z,61.90
2018-05-17T11:09:33.713Z,61.60
2018-05-17T11:12:02.004Z,61.90
2018-05-17T11:14:30.353Z,60.90
2018-05-17T11:16:57.936Z,60.90
2018-05-17T11:19:25.518Z,60.40
2018-05-17T11:21:53.158Z,60.60
2018-05-17T11:24:21.058Z,61.10
2018-05-17T11:26:49.909Z,61.50
2018-05-17T11:29:17.548Z,61.50
2018-05-17T11:31:45.615Z,62.60
2018-05-17T11:34:13.100Z,62.80
2018-05-17T11:36:40.634Z,62.70
2018-05-17T11:39:08.894Z,61.80
2018-05-17T11:41:36.392Z,61.80
2018-05-17T11:44:03.902Z,62.20
2018-05-17T11:46:31.510Z,61.80
2018-05-17T11:48:59.081Z,62.00
2018-05-17T11:51:27.222Z,61.80
2018-05-17T11:53:54.730Z,61.70
2018-05-17T11:56:22.403Z,61.70
2018-05-17T11:58:49.896Z,61.50
2018-05-17T12:01:17.398Z,61.80
2018-05-17T12:03:46.221Z,61.50
2018-05-17T12:06:13.738Z,61.50
2018-05-17T12:08:42.037Z,61.00
2018-05-17T12:11:10.497Z,60.30
2018-05-17T12:13:37.995Z,60.30
2018-05-17T12:16:05.546Z,60.40
2018-05-17T12:18:33.825Z,60.10
2018-05-17T12:21:02.104Z,59.90
2018-05-17T12:23:29.615Z,59.90
2018-05-17T12:25:57.151Z,59.80
2018-05-17T12:28:24.660Z,59.70
2018-05-17T12:30:52.178Z,59.70
2018-05-17T12:33:20.203Z,59.50
2018-05-17T12:35:47.728Z,59.70
2018-05-17T12:38:15.269Z,59.30
2018-05-17T12:40:42.779Z,59.30
2018-05-17T12:43:10.377Z,59.10
2018-05-17T12:45:37.899Z,59.40
2018-05-17T12:48:05.829Z,58.80
2018-05-17T12:50:34.103Z,58.80
2018-05-17T12:53:03.821Z,58.50
2018-05-17T12:55:32.075Z,58.50
2018-05-17T12:57:59.716Z,58.50
2018-05-17T13:00:27.249Z,58.60
2018-05-17T13:02:55.529Z,59.00
2018-05-17T13:05:23.757Z,58.60
2018-05-17T13:07:51.330Z,58.10
2018-05-17T13:10:18.944Z,57.90
2018-05-17T13:12:46.522Z,58.50
2018-05-17T13:15:14.338Z,58.70
2018-05-17T13:17:41.857Z,58.20
2018-05-17T13:20:09.365Z,57.30
2018-05-17T13:22:37.034Z,58.00
2018-05-17T13:25:04.532Z,58.40
2018-05-17T13:27:32.049Z,57.90
2018-05-17T13:30:00.829Z,57.90
2018-05-17T13:32:28.415Z,57.80
2018-05-17T13:34:55.944Z,57.80
2018-05-17T13:37:23.615Z,57.50
2018-05-17T13:39:51.107Z,57.60
2018-05-17T13:42:19.181Z,57.50
2018-05-17T13:44:46.718Z,57.70
2018-05-17T13:47:14.358Z,58.30
2018-05-17T13:49:41.904Z,57.50
2018-05-17T13:52:10.342Z,56.60
2018-05-17T13:54:37.869Z,56.60
2018-05-17T13:57:05.458Z,57.00
2018-05-17T13:59:32.952Z,56.90
2018-05-17T14:02:00.852Z,56.70
2018-05-17T14:04:29.129Z,56.50
2018-05-17T14:06:57.393Z,56.50
2018-05-17T14:09:25.822Z,56.10
2018-05-17T14:11:53.354Z,56.00
2018-05-17T14:14:21.626Z,56.20
2018-05-17T14:16:49.143Z,56.10
2018-05-17T14:19:16.638Z,55.70
2018-05-17T14:21:44.229Z,55.40
2018-05-17T14:24:13.320Z,55.80
2018-05-17T14:26:42.028Z,56.00
2018-05-17T14:29:10.306Z,54.90
2018-05-17T14:31:37.865Z,54.90
2018-05-17T14:34:05.450Z,54.80
2018-05-17T14:36:33.116Z,54.60
2018-05-17T14:39:00.852Z,53.80
2018-05-17T14:41:28.530Z,53.90
2018-05-17T14:43:57.616Z,54.00
2018-05-17T14:46:25.476Z,53.90
2018-05-17T14:48:52.972Z,54.70
2018-05-17T14:51:21.242Z,54.00
2018-05-17T14:56:24.281Z,54.20
2018-05-17T14:58:52.074Z,54.20
2018-05-17T15:01:19.673Z,54.00
2018-05-17T15:03:48.403Z,54.00
2018-05-17T15:06:15.972Z,54.00
2018-05-17T15:08:43.672Z,53.90
2018-05-17T15:11:14.748Z,54.10
2018-05-17T15:13:39.317Z,54.10
2018-05-17T15:16:06.887Z,54.40
2018-05-17T15:18:34.591Z,54.20
2018-05-17T15:21:02.900Z,54.30
2018-05-17T15:23:30.426Z,54.30
2018-05-17T15:25:58.688Z,54.30
2018-05-17T15:28:26.290Z,54.30
2018-05-17T15:30:53.788Z,54.20
2018-05-17T15:33:21.292Z,54.50
2018-05-17T15:35:49.584Z,54.00
2018-05-17T15:38:17.840Z,53.50
2018-05-17T15:40:46.066Z,53.40
2018-05-17T15:43:14.336Z,53.30
2018-05-17T15:45:42.608Z,53.70
2018-05-17T15:48:10.895Z,53.30
2018-05-17T15:50:38.541Z,53.30
2018-05-17T15:53:06.417Z,52.70
2018-05-17T15:55:34.640Z,51.90
2018-05-17T15:58:02.258Z,52.10
2018-05-17T16:00:30.556Z,53.10
2018-05-17T16:02:58.838Z,52.80
2018-05-17T16:05:27.135Z,52.60
2018-05-17T16:07:54.646Z,52.60
2018-05-17T16:10:22.476Z,53.10
2018-05-17T16:12:50.000Z,52.20
2018-05-17T16:15:18.503Z,52.30
2018-05-17T16:17:45.872Z,52.30
2018-05-17T16:20:13.372Z,52.90
2018-05-17T16:22:40.876Z,53.10
2018-05-17T16:25:09.120Z,53.20
2018-05-17T16:27:36.652Z,53.20
2018-05-17T16:30:04.930Z,53.30
2018-05-17T16:32:32.470Z,52.80
2018-05-17T16:35:00.730Z,52.40
2018-05-17T16:37:28.324Z,52.40
2018-05-17T16:39:56.506Z,52.10
2018-05-17T16:42:24.874Z,52.30
2018-05-17T16:44:53.670Z,52.30
2018-05-17T16:47:21.926Z,52.30
2018-05-17T16:49:49.456Z,52.30
2018-05-17T16:52:16.939Z,52.40
2018-05-17T16:54:44.666Z,53.40
2018-05-17T16:57:12.183Z,53.20
2018-05-17T16:59:39.722Z,53.00
2018-05-17T17:02:07.645Z,53.50
2018-05-17T17:04:35.959Z,53.20
2018-05-17T17:07:03.452Z,53.20
2018-05-17T17:09:31.182Z,53.50
2018-05-17T17:11:59.513Z,53.70
2018-05-17T17:14:27.112Z,53.90
2018-05-17T17:16:55.375Z,55.00
2018-05-17T17:19:23.149Z,55.00
2018-05-17T17:21:51.556Z,55.30
2018-05-17T17:24:19.246Z,55.30
2018-05-17T17:26:46.736Z,55.50
2018-05-17T17:29:14.314Z,55.60
2018-05-17T17:31:42.906Z,55.70
2018-05-17T17:34:10.480Z,55.70
2018-05-17T17:36:37.978Z,55.90
2018-05-17T17:39:06.024Z,55.70
2018-05-17T17:41:34.303Z,56.20
2018-05-17T17:44:02.554Z,56.50
2018-05-17T17:46:30.047Z,56.50
2018-05-17T17:48:58.339Z,57.20
2018-05-17T17:51:26.602Z,57.20
2018-05-17T17:53:54.109Z,57.10
2018-05-17T17:56:21.629Z,57.20
2018-05-17T17:58:49.233Z,57.40
2018-05-17T18:01:16.745Z,57.60
2018-05-17T18:03:44.304Z,57.80
2018-05-17T18:06:11.794Z,58.00
2018-05-17T18:08:40.310Z,58.20
2018-05-17T18:11:07.846Z,58.10
2018-05-17T18:13:36.112Z,58.30
2018-05-17T18:16:04.362Z,58.40
2018-05-17T18:18:33.165Z,58.60
2018-05-17T18:21:00.660Z,58.90
2018-05-17T18:23:28.930Z,58.90
2018-05-17T18:25:57.206Z,58.90
2018-05-17T18:28:24.786Z,58.90
2018-05-17T18:30:53.066Z,59.40
2018-05-17T18:33:21.376Z,59.10
2018-05-17T18:35:49.536Z,59.10
2018-05-17T18:38:17.232Z,58.90
2018-05-17T18:40:45.133Z,59.30
2018-05-17T18:43:12.678Z,59.80
2018-05-17T18:45:41.626Z,59.60
2018-05-17T18:48:09.890Z,59.90
2018-05-17T18:50:37.468Z,59.80
2018-05-17T18:53:05.730Z,60.20
2018-05-17T18:55:33.278Z,60.10
2018-05-17T18:58:00.779Z,60.30
2018-05-17T19:00:29.130Z,60.50
2018-05-17T19:02:56.645Z,60.40
2018-05-17T19:05:25.020Z,60.00
2018-05-17T19:07:52.507Z,59.90
2018-05-17T19:10:20.158Z,60.00
2018-05-17T19:12:47.654Z,59.90
2018-05-17T19:15:15.775Z,60.00
2018-05-17T19:17:44.735Z,60.60
2018-05-17T19:20:12.256Z,60.60
2018-05-17T19:22:39.795Z,60.40
2018-05-17T19:25:08.085Z,60.20
2018-05-17T19:27:37.102Z,60.20
2018-05-17T19:30:04.724Z,60.10
2018-05-17T19:32:32.239Z,60.40
2018-05-17T19:35:00.048Z,60.60
2018-05-17T19:37:27.609Z,60.50
2018-05-17T19:39:55.136Z,60.50
2018-05-17T19:42:22.620Z,60.70
2018-05-17T19:44:50.261Z,61.10
2018-05-17T19:47:17.903Z,60.80
2018-05-17T19:49:46.715Z,60.90
2018-05-17T19:52:14.198Z,61.10
2018-05-17T19:54:42.189Z,61.20
2018-05-17T19:57:09.846Z,61.40
2018-05-17T19:59:37.342Z,61.80
2018-05-17T20:02:04.974Z,62.00
2018-05-17T20:04:33.204Z,62.50
2018-05-17T20:07:02.405Z,62.90
2018-05-17T20:09:30.881Z,63.40
2018-05-17T20:11:58.689Z,63.40
2018-05-17T20:14:26.198Z,63.50
2018-05-17T20:16:54.797Z,63.70
2018-05-17T20:19:22.271Z,64.60
2018-05-17T20:21:49.970Z,64.20
2018-05-17T20:24:17.452Z,64.70
2018-05-17T20:26:44.967Z,64.80
2018-05-17T20:29:14.741Z,65.30
2018-05-17T20:31:42.451Z,65.30
2018-05-17T20:34:11.038Z,65.80
2018-05-17T20:36:39.410Z,66.10
2018-05-17T20:39:06.975Z,66.00
2018-05-17T20:41:35.179Z,66.40
2018-05-17T20:44:02.700Z,66.60
2018-05-17T20:46:30.301Z,66.50
2018-05-17T20:48:59.043Z,67.60
2018-05-17T20:51:26.558Z,67.00
2018-05-17T20:53:54.820Z,67.10
2018-05-17T20:56:22.700Z,66.90
2018-05-17T20:58:52.294Z,67.40
2018-05-17T21:01:20.626Z,67.70
2018-05-17T21:03:48.485Z,67.80
2018-05-17T21:06:16.007Z,68.10
2018-05-17T21:08:43.514Z,68.10
2018-05-17T21:11:11.034Z,68.90
2018-05-17T21:13:39.544Z,68.30
2018-05-17T21:16:07.102Z,68.20
2018-05-17T21:18:36.144Z,68.70
2018-05-17T21:21:03.718Z,68.70
2018-05-17T21:23:31.269Z,69.00
2018-05-17T21:25:58.926Z,69.20
2018-05-17T21:28:26.428Z,69.60
2018-05-17T21:30:54.660Z,70.10
2018-05-17T21:33:22.165Z,70.50
2018-05-17T21:35:50.543Z,70.70
2018-05-17T21:38:18.899Z,71.20
2018-05-17T21:40:46.541Z,71.40
2018-05-17T21:43:14.812Z,71.90
2018-05-17T21:45:43.086Z,71.90
2018-05-17T21:48:10.573Z,72.20
2018-05-17T21:50:38.836Z,72.60
2018-05-17T21:53:06.360Z,72.50
2018-05-17T21:55:34.527Z,72.90
2018-05-17T21:58:02.213Z,73.60
2018-05-17T22:00:30.004Z,73.30
2018-05-17T22:02:59.016Z,73.80
2018-05-17T22:05:27.280Z,73.80
2018-05-17T22:07:54.854Z,74.50
2018-05-17T22:10:22.515Z,74.10
2018-05-17T22:12:50.844Z,74.40
2018-05-17T22:15:19.352Z,74.70
2018-05-17T22:17:46.834Z,74.60
2018-05-17T22:20:15.211Z,74.90
2018-05-17T22:22:42.736Z,75.00
2018-05-17T22:25:10.226Z,75.10
2018-05-17T22:27:37.840Z,75.20
2018-05-17T22:30:06.108Z,75.80
2018-05-17T22:32:34.735Z,76.10
2018-05-17T22:35:02.245Z,75.80
2018-05-17T22:37:29.742Z,76.20
2018-05-17T22:39:57.999Z,76.30
2018-05-17T22:42:26.269Z,76.30
2018-05-17T22:44:53.752Z,76.20
2018-05-17T22:47:22.016Z,76.60
2018-05-17T22:49:50.004Z,76.60
2018-05-17T22:52:18.931Z,77.00
2018-05-17T22:54:46.430Z,77.00
2018-05-17T22:57:13.970Z,77.20
2018-05-17T22:59:42.622Z,76.80
2018-05-17T23:02:10.584Z,76.70
2018-05-17T23:04:38.848Z,77.10
2018-05-17T23:07:06.814Z,77.00
2018-05-17T23:09:34.298Z,77.30
2018-05-17T23:12:02.003Z,77.50
2018-05-17T23:14:29.623Z,77.40
2018-05-17T23:16:57.122Z,77.30
2018-05-17T23:19:24.717Z,77.50
2018-05-17T23:21:52.231Z,77.80
2018-05-17T23:24:21.140Z,78.30
2018-05-17T23:26:50.280Z,78.20
2018-05-17T23:29:17.811Z,78.20
2018-05-17T23:31:45.354Z,78.20
2018-05-17T23:34:13.630Z,78.70
2018-05-17T23:36:41.146Z,78.70
2018-05-17T23:39:08.647Z,78.70
2018-05-17T23:41:36.974Z,78.90
2018-05-17T23:44:05.184Z,79.00
2018-05-17T23:46:32.796Z,79.10
2018-05-17T23:49:01.067Z,79.20
2018-05-17T23:51:30.014Z,79.40
2018-05-17T23:53:57.505Z,79.30
2018-05-17T23:56:25.124Z,79.30
2018-05-17T23:58:52.711Z,79.50
